createdAt,value
2023-04-05T00:02:02.128Z,27.77
2023-04-05T00:04:34.925Z,27.00
2023-04-05T00:07:08.416Z,26.98
2023-04-05T00:09:38.042Z,23.85
2023-04-05T00:12:08.273Z,24.23
2023-04-05T00:14:40.452Z,28.63
2023-04-05T00:17:11.136Z,28.38
2023-04-05T00:19:43.164Z,25.58
2023-04-05T00:22:13.341Z,27.20
2023-04-05T00:24:43.677Z,23.27
2023-04-05T00:27:13.376Z,30.77
2023-04-05T00:29:45.611Z,29.38
2023-04-05T00:32:15.646Z,25.45
2023-04-05T00:34:45.201Z,30.13
2023-04-05T00:37:14.875Z,34.00
2023-04-05T00:39:44.447Z,26.13
2023-04-05T00:42:14.184Z,31.35
2023-04-05T00:44:46.270Z,26.23
2023-04-05T00:47:15.898Z,28.67
2023-04-05T00:49:45.561Z,29.15
2023-04-05T00:52:15.255Z,26.75
2023-04-05T00:54:45.561Z,25.08
2023-04-05T00:57:16.806Z,25.80
2023-04-05T00:59:48.965Z,28.85
2023-04-05T01:02:24.771Z,29.38
2023-04-05T01:05:02.226Z,29.30
2023-04-05T01:07:39.292Z,25.70
2023-04-05T01:10:14.673Z,25.95
2023-04-05T01:12:44.756Z,30.73
2023-04-05T01:15:18.978Z,28.92
2023-04-05T01:17:49.190Z,25.92
2023-04-05T01:20:18.823Z,27.27
2023-04-05T01:23:14.907Z,31.55
2023-04-05T01:26:14.442Z,24.67
2023-04-05T01:29:04.375Z,28.67
2023-04-05T01:31:44.135Z,22.67
2023-04-05T01:34:23.048Z,29.23
2023-04-05T01:36:57.511Z,28.15
2023-04-05T01:39:28.560Z,26.45
2023-04-05T01:42:01.765Z,25.63
2023-04-05T01:44:31.882Z,29.48
2023-04-05T01:47:04.088Z,27.00
2023-04-05T01:49:33.661Z,26.42
2023-04-05T01:52:03.157Z,30.80
2023-04-05T01:54:32.717Z,28.35
2023-04-05T01:57:02.386Z,28.33
2023-04-05T01:59:31.960Z,28.63
2023-04-05T02:02:04.337Z,29.42
2023-04-05T02:04:33.871Z,28.23
2023-04-05T02:07:03.866Z,27.83
2023-04-05T02:09:33.482Z,29.75
2023-04-05T02:12:03.057Z,28.20
2023-04-05T02:14:32.599Z,27.70
2023-04-05T02:17:04.772Z,29.60
2023-04-05T02:19:41.032Z,28.45
2023-04-05T02:22:11.015Z,32.17
2023-04-05T02:24:40.839Z,32.92
2023-04-05T02:27:10.881Z,32.13
2023-04-05T02:29:40.687Z,30.65
2023-04-05T02:32:12.809Z,28.75
2023-04-05T02:34:43.082Z,30.88
2023-04-05T02:37:12.598Z,29.90
2023-04-05T02:39:42.115Z,27.65
2023-04-05T02:42:11.642Z,30.00
2023-04-05T02:44:41.434Z,34.10
2023-04-05T02:47:17.451Z,29.60
2023-04-05T02:49:46.995Z,26.60
2023-04-05T02:52:16.921Z,30.08
2023-04-05T02:54:46.980Z,28.08
2023-04-05T02:57:16.850Z,26.27
2023-04-05T02:59:46.426Z,30.55
2023-04-05T03:02:18.890Z,25.20
2023-04-05T03:04:48.430Z,26.77
2023-04-05T03:07:18.721Z,26.38
2023-04-05T03:09:48.604Z,28.08
2023-04-05T03:12:18.119Z,28.00
2023-04-05T03:14:47.657Z,24.45
2023-04-05T03:17:19.842Z,30.27
2023-04-05T03:19:49.389Z,31.23
2023-04-05T03:22:18.913Z,31.23
2023-04-05T03:24:48.412Z,28.52
2023-04-05T03:27:19.284Z,25.30
2023-04-05T03:29:49.323Z,26.15
2023-04-05T03:32:21.415Z,27.27
2023-04-05T03:34:51.572Z,23.52
2023-04-05T03:37:21.099Z,22.05
2023-04-05T03:39:50.891Z,27.75
2023-04-05T03:42:20.448Z,22.58
2023-04-05T03:44:52.732Z,32.33
2023-04-05T03:47:24.930Z,29.33
2023-04-05T03:49:54.495Z,28.70
2023-04-05T03:52:24.065Z,26.08
2023-04-05T03:54:53.577Z,28.98
2023-04-05T03:57:23.166Z,24.45
2023-04-05T03:59:52.718Z,24.55
2023-04-05T04:02:25.018Z,22.98
2023-04-05T04:04:54.745Z,25.67
2023-04-05T04:07:24.320Z,23.90
2023-04-05T04:09:55.564Z,25.05
2023-04-05T04:12:25.124Z,21.17
2023-04-05T04:14:54.650Z,23.75
2023-04-05T04:17:33.111Z,26.63
2023-04-05T04:20:07.891Z,25.70
2023-04-05T04:22:38.952Z,24.98
2023-04-05T04:25:10.490Z,23.52
2023-04-05T04:27:42.249Z,32.80
2023-04-05T04:30:13.823Z,24.25
2023-04-05T04:32:55.761Z,25.15
2023-04-05T04:35:28.091Z,26.88
2023-04-05T04:38:00.699Z,24.10
2023-04-05T04:40:32.637Z,26.40
2023-04-05T04:43:02.822Z,26.73
2023-04-05T04:45:35.110Z,22.95
2023-04-05T04:48:08.338Z,27.13
2023-04-05T04:50:39.390Z,22.67
2023-04-05T04:53:09.576Z,20.38
2023-04-05T04:55:39.275Z,26.15
2023-04-05T04:58:10.347Z,19.90
2023-04-05T05:00:42.248Z,17.25
2023-04-05T05:03:14.918Z,21.80
2023-04-05T05:05:48.157Z,20.52
2023-04-05T05:08:20.486Z,19.45
2023-04-05T05:10:54.274Z,19.50
2023-04-05T05:13:23.861Z,21.10
2023-04-05T05:15:53.413Z,20.95
2023-04-05T05:18:26.247Z,21.83
2023-04-05T05:20:55.818Z,19.75
2023-04-05T05:23:25.575Z,22.67
2023-04-05T05:26:00.970Z,23.00
2023-04-05T05:28:30.664Z,24.42
2023-04-05T05:31:01.063Z,21.05
2023-04-05T05:33:34.229Z,22.38
2023-04-05T05:36:04.282Z,23.17
2023-04-05T05:38:33.891Z,24.20
2023-04-05T05:41:03.512Z,24.13
2023-04-05T05:43:33.069Z,25.30
2023-04-05T05:46:04.079Z,19.85
2023-04-05T05:48:37.065Z,19.48
2023-04-05T05:51:10.046Z,25.10
2023-04-05T05:53:40.438Z,21.92
2023-04-05T05:56:10.689Z,22.77
2023-04-05T05:58:42.074Z,21.60
2023-04-05T06:01:12.275Z,24.90
2023-04-05T06:03:44.663Z,23.40
2023-04-05T06:06:14.251Z,18.75
2023-04-05T06:08:43.897Z,21.92
2023-04-05T06:11:20.368Z,19.98
2023-04-05T06:13:50.216Z,22.02
2023-04-05T06:16:19.829Z,22.38
2023-04-05T06:18:52.312Z,18.63
2023-04-05T06:21:21.924Z,20.52
2023-04-05T06:23:51.555Z,21.02
2023-04-05T06:26:23.332Z,17.60
2023-04-05T06:28:53.756Z,16.98
2023-04-05T06:31:31.295Z,17.83
2023-04-05T06:34:03.463Z,23.10
2023-04-05T06:36:34.713Z,19.50
2023-04-05T06:39:04.764Z,18.90
2023-04-05T06:41:34.355Z,17.33
2023-04-05T06:44:03.907Z,20.10
2023-04-05T06:46:33.556Z,15.88
2023-04-05T06:49:05.820Z,18.25
2023-04-05T06:51:35.506Z,16.38
2023-04-05T06:54:05.088Z,17.17
2023-04-05T06:56:34.637Z,22.65
2023-04-05T06:59:04.222Z,19.90
2023-04-05T07:01:33.877Z,22.13
2023-04-05T07:04:06.281Z,20.35
2023-04-05T07:06:39.229Z,21.92
2023-04-05T07:09:08.856Z,19.52
2023-04-05T07:11:40.095Z,19.33
2023-04-05T07:14:09.947Z,18.52
2023-04-05T07:16:39.518Z,22.42
2023-04-05T07:19:12.062Z,20.08
2023-04-05T07:21:42.237Z,16.67
2023-04-05T07:24:11.898Z,23.17
2023-04-05T07:26:41.622Z,17.67
2023-04-05T07:29:13.153Z,26.35
2023-04-05T07:31:44.579Z,20.40
2023-04-05T07:34:16.908Z,16.67
2023-04-05T07:36:47.098Z,19.00
2023-04-05T07:39:16.741Z,15.30
2023-04-05T07:41:46.472Z,20.55
2023-04-05T07:44:16.120Z,14.75
2023-04-05T07:46:48.928Z,17.67
2023-04-05T07:49:21.587Z,18.45
2023-04-05T07:51:53.268Z,21.88
2023-04-05T07:54:22.870Z,20.40
2023-04-05T07:56:53.051Z,19.73
2023-04-05T07:59:22.692Z,23.75
2023-04-05T08:01:53.960Z,15.23
2023-04-05T08:04:29.252Z,16.80
2023-04-05T08:06:58.864Z,15.70
2023-04-05T08:09:28.449Z,15.77
2023-04-05T08:11:57.980Z,15.18
2023-04-05T08:14:27.539Z,14.88
2023-04-05T08:16:57.175Z,13.60
2023-04-05T08:19:29.502Z,15.52
2023-04-05T08:21:59.025Z,15.75
2023-04-05T08:24:28.679Z,15.27
2023-04-05T08:26:58.263Z,12.60
2023-04-05T08:29:27.958Z,11.23
2023-04-05T08:31:59.495Z,12.77
2023-04-05T08:34:31.945Z,13.20
2023-04-05T08:37:02.405Z,11.13
2023-04-05T08:39:34.343Z,7.28
2023-04-05T08:42:07.662Z,9.10
2023-04-05T08:44:40.062Z,11.05
2023-04-05T08:47:15.257Z,8.60
2023-04-05T08:49:49.113Z,11.80
2023-04-05T08:52:19.115Z,9.70
2023-04-05T08:54:50.740Z,9.27
2023-04-05T08:57:21.840Z,10.88
2023-04-05T08:59:51.634Z,7.45
2023-04-05T09:02:26.165Z,9.48
2023-04-05T09:04:59.541Z,7.60
2023-04-05T09:07:32.596Z,6.93
2023-04-05T09:10:04.978Z,7.68
2023-04-05T09:12:40.268Z,6.30
2023-04-05T09:15:11.361Z,7.75
2023-04-05T09:17:43.816Z,5.93
2023-04-05T09:20:16.000Z,9.40
2023-04-05T09:22:46.746Z,6.53
2023-04-05T09:25:39.813Z,7.15
2023-04-05T09:28:10.096Z,7.40
2023-04-05T09:30:40.228Z,6.20
2023-04-05T09:33:11.796Z,7.38
2023-04-05T09:35:44.239Z,8.90
2023-04-05T09:38:13.958Z,9.75
2023-04-05T09:40:45.919Z,8.95
2023-04-05T09:43:17.518Z,10.45
2023-04-05T09:45:47.163Z,9.88
2023-04-05T09:48:16.747Z,9.77
2023-04-05T09:50:49.572Z,8.05
2023-04-05T09:53:19.483Z,6.97
2023-04-05T09:55:49.165Z,8.60
2023-04-05T09:58:23.542Z,9.70
2023-04-05T10:01:06.168Z,11.90
2023-04-05T10:03:50.717Z,10.77
2023-04-05T10:06:23.061Z,10.30
2023-04-05T10:08:53.417Z,9.32
2023-04-05T10:11:23.720Z,9.55
2023-04-05T10:13:54.408Z,7.40
2023-04-05T10:16:26.000Z,8.52
2023-04-05T10:18:56.413Z,9.70
2023-04-05T10:21:32.933Z,8.48
2023-04-05T10:24:08.862Z,7.10
2023-04-05T10:26:44.217Z,9.27
2023-04-05T10:29:18.092Z,9.25
2023-04-05T10:31:54.833Z,9.90
2023-04-05T10:34:34.233Z,8.05
2023-04-05T10:37:07.421Z,8.45
2023-04-05T10:39:41.497Z,7.13
2023-04-05T10:42:19.825Z,8.05
2023-04-05T10:44:55.845Z,8.63
2023-04-05T10:47:29.206Z,17.42
2023-04-05T10:50:02.991Z,10.60
2023-04-05T10:52:37.189Z,10.98
2023-04-05T10:55:08.031Z,9.73
2023-04-05T10:57:39.371Z,10.40
2023-04-05T11:00:10.775Z,8.82
2023-04-05T11:02:41.181Z,10.05
2023-04-05T11:05:35.925Z,9.93
2023-04-05T11:08:12.741Z,7.70
2023-04-05T11:10:42.801Z,7.07
2023-04-05T11:13:15.239Z,11.15
2023-04-05T11:15:44.803Z,9.10
2023-04-05T11:18:23.468Z,9.05
2023-04-05T11:20:56.325Z,9.38
2023-04-05T11:23:28.674Z,8.65
2023-04-05T11:25:59.960Z,8.30
2023-04-05T11:28:32.875Z,9.20
2023-04-05T11:31:16.753Z,10.15
2023-04-05T11:34:10.281Z,9.75
2023-04-05T11:36:42.207Z,8.43
2023-04-05T11:39:30.244Z,9.32
2023-04-05T11:42:03.618Z,9.18
2023-04-05T11:44:42.225Z,7.90
2023-04-05T11:47:12.169Z,9.32
2023-04-05T11:49:42.782Z,10.90
2023-04-05T11:52:17.617Z,8.70
2023-04-05T11:54:50.326Z,7.68
2023-04-05T11:57:23.847Z,9.18
2023-04-05T11:59:54.612Z,9.68
2023-04-05T12:02:24.819Z,7.28
2023-04-05T12:04:58.914Z,6.57
2023-04-05T12:07:32.716Z,6.60
2023-04-05T12:10:08.605Z,7.38
2023-04-05T12:12:40.054Z,7.07
2023-04-05T12:15:12.152Z,8.60
2023-04-05T12:17:46.528Z,10.20
2023-04-05T12:20:19.497Z,8.35
2023-04-05T12:22:51.983Z,6.57
2023-04-05T12:25:24.529Z,9.25
2023-04-05T12:27:54.065Z,8.38
2023-04-05T12:30:25.586Z,7.03
2023-04-05T12:32:56.585Z,9.70
2023-04-05T12:35:32.767Z,7.85
2023-04-05T12:40:35.651Z,7.05
2023-04-05T12:43:06.495Z,6.15
2023-04-05T12:45:40.895Z,8.30
2023-04-05T12:48:13.305Z,7.45
2023-04-05T12:50:46.630Z,6.72
2023-04-05T12:53:21.388Z,9.13
2023-04-05T12:55:55.426Z,10.18
2023-04-05T12:58:34.734Z,9.05
2023-04-05T13:01:04.457Z,7.85
2023-04-05T13:03:34.053Z,8.48
2023-04-05T13:06:03.623Z,8.73
2023-04-05T13:08:33.754Z,6.85
2023-04-05T13:11:05.943Z,6.50
2023-04-05T13:13:36.100Z,8.25
2023-04-05T13:16:05.795Z,7.28
2023-04-05T13:18:35.349Z,6.20
2023-04-05T13:21:08.633Z,7.15
2023-04-05T13:23:38.603Z,7.43
2023-04-05T13:26:11.676Z,8.38
2023-04-05T13:28:41.210Z,7.47
2023-04-05T13:31:11.686Z,7.68
2023-04-05T13:33:42.521Z,8.77
2023-04-05T13:36:13.728Z,10.75
2023-04-05T13:38:43.360Z,9.20
2023-04-05T13:41:16.197Z,9.43
2023-04-05T13:43:45.752Z,9.00
2023-04-05T13:46:15.356Z,10.48
2023-04-05T13:48:44.995Z,9.52
2023-04-05T13:51:14.631Z,9.60
2023-04-05T13:53:44.479Z,9.07
2023-04-05T13:56:16.618Z,8.50
2023-04-05T13:58:46.179Z,9.85
2023-04-05T14:01:16.443Z,10.02
2023-04-05T14:03:46.229Z,9.85
2023-04-05T14:06:15.896Z,10.30
2023-04-05T14:08:45.531Z,8.80
2023-04-05T14:11:17.641Z,5.43
2023-04-05T14:13:47.212Z,6.95
2023-04-05T14:16:16.865Z,10.45
2023-04-05T14:18:46.559Z,9.25
2023-04-05T14:21:16.255Z,9.00
2023-04-05T14:23:45.888Z,8.65
2023-04-05T14:26:17.968Z,4.97
2023-04-05T14:28:47.525Z,8.20
2023-04-05T14:31:17.168Z,6.45
2023-04-05T14:33:46.898Z,7.28
2023-04-05T14:36:16.387Z,6.68
2023-04-05T14:38:45.987Z,7.47
2023-04-05T14:41:19.431Z,9.55
2023-04-05T14:43:48.961Z,11.05
2023-04-05T14:46:18.531Z,7.80
2023-04-05T14:48:48.563Z,4.07
2023-04-05T14:51:18.272Z,6.45
2023-04-05T14:53:47.884Z,8.40
2023-04-05T14:56:20.087Z,7.28
2023-04-05T14:58:49.892Z,7.68
2023-04-05T15:01:19.566Z,7.63
2023-04-05T15:03:52.105Z,8.80
2023-04-05T15:06:23.134Z,8.32
2023-04-05T15:08:52.702Z,8.95
2023-04-05T15:11:24.928Z,6.65
2023-04-05T15:13:56.352Z,9.27
2023-04-05T15:16:25.954Z,7.28
2023-04-05T15:18:56.009Z,7.95
2023-04-05T15:21:25.909Z,6.55
2023-04-05T15:23:55.507Z,7.82
2023-04-05T15:26:27.651Z,5.70
2023-04-05T15:28:57.354Z,6.22
2023-04-05T15:31:27.050Z,7.90
2023-04-05T15:33:56.894Z,6.32
2023-04-05T15:36:28.327Z,6.65
2023-04-05T15:38:57.863Z,6.65
2023-04-05T15:41:30.390Z,11.68
2023-04-05T15:44:00.245Z,6.07
2023-04-05T15:46:30.145Z,7.15
2023-04-05T15:49:00.180Z,7.70
2023-04-05T15:51:30.038Z,6.97
2023-04-05T15:53:59.972Z,7.63
2023-04-05T15:56:32.392Z,7.72
2023-04-05T15:59:02.247Z,7.03
2023-04-05T16:01:32.251Z,7.07
2023-04-05T16:04:02.221Z,7.93
2023-04-05T16:06:34.657Z,6.78
2023-04-05T16:09:04.684Z,8.75
2023-04-05T16:11:36.990Z,8.27
2023-04-05T16:14:11.325Z,8.43
2023-04-05T16:16:52.382Z,6.90
2023-04-05T16:19:26.553Z,6.63
2023-04-05T16:21:56.164Z,7.80
2023-04-05T16:24:26.942Z,8.07
2023-04-05T16:26:59.199Z,7.78
2023-04-05T16:29:28.771Z,8.18
2023-04-05T16:31:58.454Z,7.10
2023-04-05T16:34:28.182Z,6.72
2023-04-05T16:36:57.734Z,11.07
2023-04-05T16:39:27.237Z,7.47
2023-04-05T16:42:00.860Z,5.15
2023-04-05T16:44:32.280Z,7.90
2023-04-05T16:47:02.248Z,6.95
2023-04-05T16:49:31.792Z,7.78
2023-04-05T16:52:02.623Z,8.00
2023-04-05T16:54:32.588Z,8.93
2023-04-05T16:57:04.869Z,7.18
2023-04-05T16:59:34.546Z,10.25
2023-04-05T17:02:04.221Z,9.88
2023-04-05T17:04:34.647Z,8.90
2023-04-05T17:07:05.247Z,8.20
2023-04-05T17:09:34.817Z,11.40
2023-04-05T17:12:12.332Z,12.13
2023-04-05T17:14:42.057Z,11.82
2023-04-05T17:17:11.663Z,9.25
2023-04-05T17:19:41.337Z,9.90
2023-04-05T17:22:11.113Z,7.63
2023-04-05T17:24:40.886Z,7.78
2023-04-05T17:27:13.306Z,10.00
2023-04-05T17:29:42.869Z,10.65
2023-04-05T17:32:12.459Z,7.82
2023-04-05T17:34:42.131Z,9.70
2023-04-05T17:37:11.653Z,9.25
2023-04-05T17:39:41.848Z,8.10
2023-04-05T17:42:13.997Z,10.07
2023-04-05T17:44:43.619Z,7.63
2023-04-05T17:47:13.221Z,8.60
2023-04-05T17:49:42.869Z,12.13
2023-04-05T17:52:13.317Z,9.02
2023-04-05T17:54:43.507Z,11.18
2023-04-05T17:57:15.846Z,11.68
2023-04-05T17:59:45.965Z,13.55
2023-04-05T18:02:15.650Z,10.93
2023-04-05T18:04:45.325Z,8.65
2023-04-05T18:07:15.563Z,11.38
2023-04-05T18:09:45.191Z,15.40
2023-04-05T18:12:17.422Z,11.55
2023-04-05T18:14:46.952Z,15.85
2023-04-05T18:17:16.521Z,13.70
2023-04-05T18:19:46.183Z,10.52
2023-04-05T18:22:16.260Z,10.77
2023-04-05T18:24:46.370Z,18.42
2023-04-05T18:27:18.570Z,16.73
2023-04-05T18:29:48.734Z,28.23
2023-04-05T18:32:18.871Z,21.15
2023-04-05T18:34:48.459Z,24.95
2023-04-05T18:37:18.088Z,19.50
2023-04-05T18:39:47.610Z,19.65
2023-04-05T18:42:19.775Z,17.23
2023-04-05T18:44:49.408Z,20.73
2023-04-05T18:47:18.995Z,23.30
2023-04-05T18:49:48.629Z,22.65
2023-04-05T18:52:22.710Z,18.85
2023-04-05T18:54:52.282Z,13.77
2023-04-05T18:57:24.463Z,14.27
2023-04-05T18:59:54.023Z,19.88
2023-04-05T19:02:23.640Z,16.75
2023-04-05T19:04:55.336Z,27.05
2023-04-05T19:07:25.222Z,23.48
2023-04-05T19:09:54.766Z,21.88
2023-04-05T19:12:26.872Z,26.45
2023-04-05T19:14:56.469Z,24.85
2023-04-05T19:17:26.029Z,19.98
2023-04-05T19:19:55.662Z,24.30
2023-04-05T19:22:25.314Z,25.73
2023-04-05T19:24:55.069Z,24.40
2023-04-05T19:27:30.884Z,21.70
2023-04-05T19:30:00.417Z,21.67
2023-04-05T19:32:30.073Z,22.67
2023-04-05T19:34:59.801Z,20.77
2023-04-05T19:37:29.478Z,29.52
2023-04-05T19:39:59.103Z,24.48
2023-04-05T19:42:31.512Z,25.63
2023-04-05T19:45:01.689Z,25.95
2023-04-05T19:47:31.757Z,32.95
2023-04-05T19:50:02.051Z,22.60
2023-04-05T19:52:45.625Z,27.27
2023-04-05T19:55:33.948Z,26.13
2023-04-05T19:58:09.662Z,29.25
2023-04-05T20:00:42.069Z,32.85
2023-04-05T20:03:31.397Z,28.45
2023-04-05T20:06:05.433Z,34.90
2023-04-05T20:08:36.913Z,40.97
2023-04-05T20:11:10.523Z,42.17
2023-04-05T20:13:45.392Z,33.38
2023-04-05T20:16:16.633Z,33.83
2023-04-05T20:18:51.080Z,30.63
2023-04-05T20:21:21.827Z,28.25
2023-04-05T20:23:51.534Z,35.85
2023-04-05T20:26:29.786Z,38.13
2023-04-05T20:29:03.895Z,40.30
2023-04-05T20:31:39.046Z,47.33
2023-04-05T20:34:12.708Z,39.13
2023-04-05T20:36:47.820Z,40.10
2023-04-05T20:39:17.459Z,39.92
2023-04-05T20:41:47.245Z,35.90
2023-04-05T20:44:19.437Z,38.40
2023-04-05T20:46:49.092Z,35.28
2023-04-05T20:49:18.647Z,36.83
2023-04-05T20:51:48.267Z,38.67
2023-04-05T20:54:17.997Z,42.92
2023-04-05T20:56:47.585Z,43.30
2023-04-05T20:59:19.828Z,43.75
2023-04-05T21:01:49.853Z,53.85
2023-04-05T21:04:19.521Z,92.25
2023-04-05T21:06:49.103Z,61.67
2023-04-05T21:09:18.777Z,66.63
2023-04-05T21:11:48.341Z,64.97
2023-04-05T21:14:20.547Z,65.13
2023-04-05T21:16:50.266Z,56.80
2023-04-05T21:19:19.838Z,57.60
2023-04-05T21:21:49.381Z,69.45
2023-04-05T21:24:18.926Z,54.63
2023-04-05T21:26:48.443Z,50.67
2023-04-05T21:29:20.733Z,60.42
2023-04-05T21:31:50.502Z,56.00
2023-04-05T21:34:20.162Z,55.45
2023-04-05T21:36:49.714Z,62.83
2023-04-05T21:39:19.262Z,58.15
2023-04-05T21:41:48.929Z,62.10
2023-04-05T21:44:21.101Z,59.85
2023-04-05T21:46:50.723Z,65.53
2023-04-05T21:49:20.370Z,67.50
2023-04-05T21:51:49.966Z,71.43
2023-04-05T21:54:19.576Z,71.80
2023-04-05T21:56:49.150Z,63.75
2023-04-05T21:59:21.736Z,58.25
2023-04-05T22:01:51.515Z,73.40
2023-04-05T22:04:21.202Z,74.65
2023-04-05T22:06:50.741Z,68.25
2023-04-05T22:09:20.450Z,66.57
2023-04-05T22:11:50.040Z,65.68
2023-04-05T22:14:22.317Z,81.53
2023-04-05T22:16:51.970Z,68.45
2023-04-05T22:19:21.945Z,100.45
2023-04-05T22:21:51.481Z,96.60
2023-04-05T22:24:21.098Z,127.32
2023-04-05T22:26:52.082Z,94.50
2023-04-05T22:29:24.629Z,67.00
2023-04-05T22:31:54.426Z,76.90
2023-04-05T22:34:24.097Z,69.72
2023-04-05T22:36:53.653Z,74.68
2023-04-05T22:39:23.279Z,75.68
2023-04-05T22:41:52.799Z,73.93
2023-04-05T22:44:25.355Z,82.03
2023-04-05T22:46:54.919Z,78.68
2023-04-05T22:49:24.442Z,73.90
2023-04-05T22:51:53.962Z,77.68
2023-04-05T22:54:23.486Z,72.28
2023-04-05T22:56:53.003Z,105.82
2023-04-05T22:59:25.680Z,80.35
2023-04-05T23:01:57.704Z,80.45
2023-04-05T23:04:27.763Z,85.97
2023-04-05T23:06:57.384Z,89.07
2023-04-05T23:09:27.505Z,85.07
2023-04-05T23:11:57.174Z,85.15
2023-04-05T23:14:29.396Z,93.72
2023-04-05T23:16:58.981Z,98.80
2023-04-05T23:19:28.530Z,85.28
2023-04-05T23:21:58.341Z,145.75
2023-04-05T23:24:28.021Z,97.85
2023-04-05T23:26:57.584Z,113.35
2023-04-05T23:29:29.825Z,124.60
2023-04-05T23:31:59.409Z,125.55
2023-04-05T23:34:29.003Z,86.18
2023-04-05T23:36:58.532Z,130.82
2023-04-05T23:39:28.164Z,139.52
2023-04-05T23:41:57.759Z,106.85
2023-04-05T23:44:30.044Z,215.23
2023-04-05T23:46:59.771Z,132.32
2023-04-05T23:49:29.426Z,86.15
2023-04-05T23:51:59.044Z,95.97
2023-04-05T23:54:28.577Z,134.68
2023-04-05T23:56:58.122Z,108.05
2023-04-05T23:59:30.303Z,115.88
